NWS Home NWS Lubbock West Texas Mesonet Latest Conditions as of 0337 PM, Wed Jan 29, 2020

Latest   N   C   S   Daily Sum   3hrΔ   24hrΔ   Soil Data 
Site Map   24hr Precip   72hr Precip   Google Plot


Station Time of Last Temp Dew Pt. RH Wind Direction Wind Speed Wind Gust Max Wind Max Temp Min Temp Max RH Min RH Altimeter 1HR Rain Today's Rain Solar Rad RFTI
Abernathy 5ENE  03:30 PM 52 20 28% E1016 17 mph 86° @ 0250 PM 53 22 91 28 30.02" 0 0 507 0
Adrian 6WSW  03:30 PM 48 24 38% S911 14 mph 139° @ 1054 AM 48 26 86 34 30.02" 0 0.01 466 0
Aiken 3WSW  03:30 PM 51 21 30% E1315 21 mph 18° @ 0225 AM 51 17 96 28 30.04" 0 0 510 0
Amarillo 15NNW   03:30 PM 52 22 30% NE47 12 mph 46° @ 0235 PM 53 19 100 29 30.03" 0 0 458 0
Amarillo 7SSE  03:30 PM 50 19 29% SE68 14 mph 88° @ 0211 PM 51 17 100 29 30.04" 0 0 446 0
Amarillo 9NNE  03:30 PM 51 20 29% E35 13 mph 66° @ 0324 PM 52 15 99 29 30.03" 0 0 437 0
Amherst 1NE  03:30 PM 53 20 26% SE712 17 mph 90° @ 1250 PM 53 18 88 26 30.00" 0 0 500 0
Andrews 2E  03:30 PM 56 20 25% SE1217 20 mph 97° @ 0300 PM 56 24 81 25 29.98" 0 0 546 0
Anton 6SSW  03:30 PM 53 20 27% E915 18 mph 80° @ 0220 PM 53 18 88 27 30.01" 0 0 505 0
Aspermont 3NE  03:30 PM 49 34 57% NE1117 18 mph 31° @ 1225 PM 50 27 95 54 30.06" 0 0 481 0
Big Bend NP - Castolon  03:30 PM 69 17 13% E1215 20 mph 129° @ 0323 PM 70 33 57 13 29.87" 0 0 606 0
Big Bend NP - Persimmon Gap  03:30 PM 63 21 20% NE1113 20 mph 36° @ 0944 AM 64 32 66 19 29.92" 0 0 565 0
Big Lake 1WNW  03:30 PM 59 21 23% SE1012 15 mph 55° @ 1006 AM 59 29 79 20 29.99" 0 0 461 0
Bootleg 11WNW  03:30 PM 49 20 32% SE811 17 mph 126° @ 1234 PM 50 21 87 31 30.03" 0 0 439 0
Boys Ranch 1WSW  03:30 PM 52 20 27% S34 12 mph 271° @ 0527 AM 53 20 98 26 30.04" 0 0 457 0
Brownfield 2S  03:30 PM 54 22 29% E915 19 mph 122° @ 0240 PM 54 23 84 27 30.00" 0 0 513 0
Canadian 6E  03:30 PM 36 33 87% NE78 15 mph 55° @ 0256 PM 41 25 100 72 30.08" 0 0 478 0
Caprock Canyons State Park  03:30 PM 50 25 37% E1213 23 mph 331° @ 0238 AM 51 29 89 36 30.06" 0 0 488 0
Childress 2NNE  03:30 PM 48 33 58% NE1216 28 mph 337° @ 1225 AM 50 30 94 55 30.07" 0.01 0.01 452 0
Clarendon 2WSW  03:30 PM 49 26 39% E711 17 mph 307° @ 0245 AM 50 24 93 39 30.05" 0 0 466 0
Claude 12SW  03:30 PM 50 20 30% NE45 16 mph 59° @ 0119 PM 50 24 100 29 30.04" 0 0 493 0
Clyde 2WNW  03:30 PM 50 33 51% NE810 23 mph 315° @ 1217 AM 52 27 98 46 30.05" 0 0 482 0
Colorado City 5NW  03:30 PM 54 28 36% NE78 20 mph 64° @ 0104 PM 55 24 94 33 30.04" 0 0 450 0
Coyanosa 2N  03:30 PM 62 22 21% E2025 28 mph 91° @ 0329 PM 62 27 80 21 29.94" 0 0 569 0
Crane 1NNW   03:30 PM 60 22 23% SE1417 22 mph 118° @ 0313 PM 60 25 87 23 29.96" 0 0 507 0
Crowell 1E  03:30 PM 46 37 70% NE1415 20 mph 338° @ 1205 AM 47 30 95 65 30.10" 0 0 129 0
Dell City  03:30 PM 60 20 21% SE1618 21 mph 139° @ 0307 PM 61 19 78 20 29.89" 0 0 535 0
Denver City 7WNW  03:30 PM 54 17 23% SE1219 21 mph 106° @ 0210 PM 54 21 84 23 29.98" 0 0 517 0
Dimmitt 2NE  03:30 PM 50 22 33% E712 16 mph 98° @ 1240 PM 50 19 92 31 30.01" 0 0 492 0
Doole 3WNW  03:30 PM 55 37 51% E1011 17 mph 320° @ 1010 AM 56 31 91 45 30.03" 0 0 521 0
Dora NM 2SW  03:30 PM 53 18 24% SE1316 20 mph 122° @ 0320 PM 53 25 77 24 29.99" 0 0 464 0
Dozier 3W  03:30 PM 46 36 66% NE1114 19 mph 43° @ 0106 PM 48 28 95 56 30.08" 0 0 467 0
Earth 9WSW  03:30 PM 54 19 25% E1014 17 mph 93° @ 0101 PM 55 19 89 24 30.02" 0 0 488 0
Endee NM 2SW  03:30 PM 51 23 33% S79 15 mph 162° @ 0245 PM 52 20 92 32 30.01" 0 0 469 0
Estelline 3SSE  03:30 PM 51 34 52% NE1012 18 mph 35° @ 0203 PM 52 31 92 48 30.07" 0 0 455 0
Floydada 2NNE  03:30 PM 52 21 30% NE1015 21 mph 55° @ 0115 PM 53 19 92 27 30.03" 0 0 488 0
Fluvanna 3WNW  03:30 PM 52 28 39% E1013 20 mph 352° @ 1215 AM 52 28 85 39 30.02" 0 0 477 0
Fort Chadbourne  03:30 PM 54 30 40% E912 18 mph 77° @ 0218 PM 56 31 95 37 30.03" 0 0 516 0
Fort Lancaster  03:30 PM 65 23 20% SE1214 18 mph 142° @ 0125 PM 65 25 100 20 29.97" 0 0 526 0
Fort Lewis CO  03:30 PM 37 22 54% SW811 13 mph 198° @ 0245 PM 39 12 99 46 29.98" 0 0 505 0
Fort McKavett  03:30 PM 58 29 33% E47 14 mph 338° @ 0929 AM 58 28 97 32 30.03" 0 0 540 0
Friona 2NE  03:30 PM 52 21 30% E710 17 mph 120° @ 0300 PM 52 17 95 30 30.02" 0 0 502 0
Fritch 1WNW  03:30 PM 50 20 30% E78 11 mph 89° @ 0329 PM 51 23 95 28 30.04" 0 0 441 0
Gail 2ESE  03:30 PM 54 25 32% E913 16 mph 94° @ 0325 PM 54 28 80 31 30.01" 0 0.01 506 0
Goodlett 3W  03:30 PM 45 36 73% NE1418 31 mph 335° @ 1255 AM 46 29 94 69 30.08" 0 0 503 0
Goodnight  03:30 PM 50 23 34% NE56 15 mph 287° @ 0911 AM 52 25 100 32 30.05" 0 0 456 0
Graham 5SSW  03:30 PM 52 25 35% E1318 19 mph 94° @ 0250 PM 53 27 85 34 30.01" 0 0 501 0
Guadalupe Mtns Natl Park  03:30 PM 48 18 30% E78 22 mph 315° @ 1207 AM 49 33 46 18 29.96" 0 0 499 0
Guthrie 10WSW  03:30 PM 52 31 46% NE916 28 mph 336° @ 1215 AM 53 33 85 45 30.05" 0 0 407 0
Hackberry 2 SSE  03:30 PM 49 34 57% NE1517 22 mph 342° @ 1208 AM 50 29 97 53 30.07" 0 0 503 0
Happy 1E  03:30 PM 50 21 32% E710 16 mph 96° @ 1236 PM 51 21 95 30 30.04" 0 0 490 0
Hart 3N  03:30 PM 52 19 27% E913 15 mph 68° @ 0100 PM 52 15 97 27 30.02" 0 0 505 0
Haskell 1NW  03:30 PM 45 33 63% NE1015 25 mph 337° @ 1235 AM 45 28 94 63 30.08" 0 0 471 0
Hefner 1SW  03:30 PM 44 35 69% NE1216 27 mph 324° @ 1216 AM 45 29 96 65 30.10" 0 0 574 0
Hereford 2NW  03:30 PM 51 22 31% E58 14 mph 113° @ 0125 PM 52 17 92 30 30.01" 0 0 486 0
Hobbs NM 5NW  03:30 PM 55 17 22% SE1316 23 mph 127° @ 0118 PM 55 23 78 22 30.01" 0 0 524 0
Jayton 1SSE  03:30 PM 51 33 50% E1115 22 mph 351° @ 1210 AM 52 26 94 47 30.04" 0 0 497 0
Junction 1SSW  03:30 PM 58 28 32% N69 16 mph 34° @ 1237 PM 59 26 97 31 30.03" 0 0 409 0
Kent 9E  03:30 PM 60 21 22% E1116 22 mph 107° @ 0300 PM 60 29 59 22 29.92" 0 0 594 0
Knox City 3NW  03:30 PM 47 35 63% NE1216 20 mph 328° @ 1230 AM 47 29 95 62 30.09" 0 0 415 0
Lake Alan Henry 1NW  03:30 PM 54 28 37% E913 18 mph 58° @ 1055 AM 54 26 92 36 30.03" 0 0 488 0
Lake McClellan 2NW  03:30 PM 49 24 37% E1214 22 mph 26° @ 0133 PM 50 26 92 32 30.05" 0 0 453 0
Lamesa 2SE  03:30 PM 53 23 31% E1319 19 mph 102° @ 0330 PM 54 26 83 31 30.01" 0 0 543 0
Lesley 2S  03:30 PM 51 31 46% E1416 19 mph 88° @ 0233 PM 53 25 95 41 30.06" 0 0.01 497 0
Levelland 4S  03:30 PM 52 21 28% E914 17 mph 103° @ 0155 PM 53 19 90 27 30.01" 0 0 508 0
Lomax 1SSE  03:30 PM 56 25 31% E1012 17 mph 55° @ 1056 AM 56 23 86 30 30.01" 0 0 544 0
Lubbock 3WNW TTU  03:30 PM 53 22 29% E1116 16 mph 100° @ 0330 PM 54 22 89 28 30.01" 0 0 525 0
McCamey 1SSW  03:30 PM 61 23 23% E915 18 mph 128° @ 0317 PM 62 27 88 22 29.97" 0 0 546 0
McLean 1E  03:30 PM 46 29 51% NE912 17 mph 52° @ 0205 PM 46 25 95 51 30.05" 0 0 449 0
Memphis 1NE  03:30 PM 50 35 57% NE812 16 mph 39° @ 0255 PM 50 30 93 55 30.07" 0 0 388 0
Menard 2NW   03:30 PM 56 31 39% N68 19 mph 315° @ 0320 AM 57 31 91 34 30.03" 0 0 476 0
Mertzon 3NNE  03:30 PM 56 28 34% NE910 15 mph 64° @ 1222 PM 58 24 100 33 30.03" 0 0 363 0
Morton 1ENE  03:30 PM 54 17 22% SE915 19 mph 116° @ 0315 PM 54 19 82 22 30.00" 0 0 474 0
Muleshoe 2SSW  03:30 PM 53 20 27% E913 26 mph 97° @ 0240 PM 53 16 95 27 30.01" 0 0 541 0
New Home  03:30 PM 54 24 31% E915 18 mph 100° @ 0245 PM 54 22 89 30 30.02" 0 0 506 0
Northfield 1S  03:30 PM 51 32 49% NE1114 16 mph 57° @ 0300 PM 52 28 92 45 30.06" 0 0.01 463 0
O'Donnell 1N  03:30 PM 53 26 35% E1216 18 mph 67° @ 1145 AM 53 22 89 33 30.01" 0 0 454 0
Odell 4ENE  03:30 PM 38 32 80% N911 24 mph 330° @ 0109 AM 42 31 96 72 30.13" 0 0 136 0
Olton 6S  03:30 PM 52 20 28% E712 20 mph 94° @ 0100 PM 53 16 91 28 30.02" 0 0 455 0
Paducah 10SW  03:30 PM 50 34 56% NE1117 20 mph 311° @ 0330 AM 50 31 92 54 30.06" 0 0 423 0
Palo Duro 4E (JA Ranch)  03:30 PM 53 25 34% NE57 18 mph 321° @ 0124 AM 54 21 95 31 30.05" 0 0 465 0
Palo Duro Canyon SP Floor  03:30 PM 56 21 26% SE26 17 mph 104° @ 0122 PM 57 20 97 24 30.04" 0 0 471 0
Palo Duro Canyon State Park Rim  03:30 PM 52 20 28% NE47 14 mph 93° @ 0112 PM 53 22 92 26 30.05" 0 0 508 0
Palo Duro Reservoir 1NW   03:30 PM 48 27 43% E35 14 mph 282° @ 0400 AM 49 21 95 41 30.05" 0 0.01 435 0
Pampa 2E  03:30 PM 47 22 37% NE711 16 mph 319° @ 1210 AM 48 24 96 37 30.05" 0 0 458 0
Panhandle 1SSW  03:30 PM 48 24 37% E46 16 mph 285° @ 0846 AM 49 19 99 34 30.05" 0 0 468 0
Plains 3N  03:30 PM 53 20 27% SE1115 19 mph 116° @ 0240 PM 53 18 87 27 29.99" 0 0 516 0
Plainview 1S  03:30 PM 51 20 29% E712 25 mph 13° @ 0130 AM 52 20 96 29 30.02" 0 0 455 0
Post 1NE  03:30 PM 55 24 30% E1115 19 mph 87° @ 0315 PM 55 30 82 30 30.02" 0 0 503 0
Ralls 1SE  03:30 PM 52 21 29% E1217 23 mph 5° @ 0140 AM 52 24 83 28 30.02" 0 0 500 0
Reese Center  03:30 PM 53 21 28% E1114 18 mph 84° @ 0255 PM 54 21 87 28 30.01" 0 0 523 0
Roaring Springs 3N  03:30 PM 50 33 52% NE914 20 mph 326° @ 0225 AM 51 32 96 49 30.04" 0 0 453 0
Romero 11SSW  03:30 PM 50 23 34% SE57 14 mph 95° @ 0325 PM 51 22 90 34 30.01" 0 0 458 0
Rotan 5W  03:30 PM 51 32 47% NE1315 21 mph 356° @ 1227 AM 52 28 93 42 30.05" 0 0 497 0
San Angelo 7NW  03:30 PM 57 24 28% E913 15 mph 96° @ 0215 PM 58 25 82 28 30.02" 0 0 516 0
Seagraves 1SW  03:30 PM 54 22 28% E813 17 mph 109° @ 0150 PM 54 19 88 27 29.99" 0 0 465 0
Segovia 7SSW  03:30 PM 57 30 37% N46 22 mph 333° @ 0403 AM 57 34 85 33 30.03" 0 0 517 0
Seminole 2NNE  03:30 PM 54 19 25% E1015 20 mph 115° @ 0210 PM 55 23 84 25 29.99" 0 0 528 0
Seymour 3NW  03:30 PM 42 34 73% NE1114 24 mph 328° @ 1255 AM 42 31 96 73 30.10" 0 0 207 0
Sierra Blanca 1SSE  03:30 PM 60 16 18% S1315 27 mph 165° @ 1233 PM 61 31 47 17 29.89" 0 0 521 0
Silverton 7ESE  03:30 PM 49 27 42% E1013 18 mph 72° @ 0110 PM 50 21 92 33 30.04" 0 0 470 0
Slaton 2NE  03:30 PM 53 25 33% E1117 21 mph 320° @ 0105 AM 53 22 91 33 30.02" 0 0 451 0
Smyer  03:30 PM 55 20 26% NE67 16 mph 67° @ 0218 PM 56 22 87 25 30.01" 0 0 493 0
Snyder 3E  03:30 PM 53 30 41% E913 21 mph 33° @ 0950 AM 53 29 95 41 30.03" 0 0 445 0
Snyder 3SSW  03:30 PM 53 29 40% E1112 19 mph 17° @ 1038 AM 54 27 92 37 30.03" 0 0 493 0
South Plains 3ENE  03:30 PM 50 24 37% NE1013 21 mph 60° @ 0234 PM 51 20 93 30 30.04" 0 0 469 0
Spur 1W  03:30 PM 52 31 45% E913 20 mph 13° @ 1225 AM 52 28 88 43 30.03" 0 0 504 0
St. Lawrence 5SW  03:30 PM 58 24 27% E1017 17 mph 78° @ 0155 PM 58 26 83 26 29.99" 0 0 553 0
Stamford 5ESE  03:30 PM 47 34 60% NE911 18 mph 349° @ 1254 AM 47 29 94 60 30.08" 0 0 483 0
Sterling City 4WSW  03:30 PM 58 24 28% NE711 15 mph 40° @ 1237 PM 58 19 100 28 30.01" 0 0.01 432 0
Stinnett 1NNW  03:30 PM 49 23 37% NE56 17 mph 296° @ 0302 AM 49 23 100 33 30.05" 0 0 469 0
Stratford 4WNW  03:30 PM 49 22 36% SE1113 15 mph 166° @ 0304 PM 50 17 91 32 30.04" 0 0.01 452 0
Sundown 8WSW  03:30 PM 55 18 23% E1015 18 mph 102° @ 0145 PM 55 18 86 23 30.00" 0 0 447 0
Sweetwater 11SW   03:30 PM 52 30 43% NE1418 21 mph 62° @ 1238 PM 52 28 93 40 30.04" 0 0 498 0
Tahoka 3NNE  03:30 PM 54 24 32% E1316 20 mph 102° @ 0322 PM 55 20 90 31 30.01" 0 0 509 0
Tarzan 2WNW  03:30 PM 55 26 33% E1215 19 mph 100° @ 0312 PM 55 25 84 31 30.00" 0 0 501 0
Tatum NM 2SW  03:30 PM 53 17 23% SE1317 22 mph 127° @ 1205 PM 55 17 83 23 29.98" 0 0 570 0
Throckmorton 1SW  03:30 PM 41 34 76% N911 25 mph 317° @ 1256 AM 43 30 99 70 30.10" 0 0 217 0
Truscott 2SE  03:30 PM 47 35 62% NE1214 21 mph 330° @ 1207 AM 47 29 95 61 30.09" 0 0 478 0
Tulia 2ENE  03:30 PM 50 22 33% E813 19 mph 91° @ 0150 PM 51 18 93 27 30.03" 0 0 438 0
Turkey 2WSW  03:30 PM 51 28 41% NE1016 18 mph 298° @ 0240 AM 51 30 90 41 30.05" 0 0 429 0
Umbarger 3NNE  03:30 PM 50 21 31% E46 15 mph 32° @ 0146 AM 51 17 95 30 30.04" 0 0 467 0
Van Horn 3ENE  03:30 PM 66 20 17% S911 24 mph 154° @ 0210 PM 66 25 68 17 29.88" 0 0 610 0
Vigo Park  03:30 PM 50 24 35% E911 18 mph 78° @ 0111 PM 51 16 100 32 30.04" 0 0 443 0
Wall 2E  03:30 PM 54 33 45% E911 16 mph 40° @ 1235 PM 54 30 92 45 30.04" 0 0 538 0
Weinert 2NNE  03:30 PM 44 33 63% NE1112 23 mph 345° @ 1233 AM 45 32 90 62 30.09" 0 0 467 0
Welch  03:30 PM 54 21 28% E1112 18 mph 78° @ 1033 AM 55 23 88 27 30.01" 0 0 528 0
White River Lake 6NW  03:30 PM 54 26 34% NE1116 24 mph 338° @ 1230 AM 54 26 87 32 30.02" 0 0 509 0
Wolfforth 6SSW  03:30 PM 54 24 31% E1216 19 mph 94° @ 0245 PM 54 20 91 28 30.01" 0 0 526 0

West Texas Mesonet Home   Site Map/Menu  NWS Lubbock Soil Data  Daily Summary Page  24hr Precip  72hr Precip  Google Plot